createdAt,value
2018-02-23T00:01:36.945Z,15.82
2018-02-23T00:04:04.461Z,17.17
2018-02-23T00:06:31.963Z,16.17
2018-02-23T00:08:59.476Z,21.30
2018-02-23T00:11:26.992Z,16.17
2018-02-23T00:13:55.304Z,14.43
2018-02-23T00:16:23.886Z,17.00
2018-02-23T00:18:52.172Z,21.37
2018-02-23T00:21:20.494Z,22.73
2018-02-23T00:23:48.041Z,20.05
2018-02-23T00:26:15.582Z,21.85
2018-02-23T00:28:43.115Z,16.87
2018-02-23T00:31:11.375Z,17.80
2018-02-23T00:33:38.890Z,13.98
2018-02-23T00:36:06.409Z,21.85
2018-02-23T00:38:34.672Z,17.42
2018-02-23T00:41:02.189Z,18.52
2018-02-23T00:43:30.449Z,23.00
2018-02-23T00:45:57.960Z,19.80
2018-02-23T00:48:25.478Z,19.23
2018-02-23T00:50:53.048Z,19.58
2018-02-23T00:53:21.336Z,15.68
2018-02-23T00:55:49.602Z,20.17
2018-02-23T00:58:17.103Z,19.58
2018-02-23T01:00:44.630Z,17.48
2018-02-23T01:03:12.141Z,21.08
2018-02-23T01:05:39.662Z,18.90
2018-02-23T01:08:07.935Z,20.30
2018-02-23T01:10:35.481Z,21.87
2018-02-23T01:13:02.990Z,20.52
2018-02-23T01:15:31.282Z,18.98
2018-02-23T01:17:59.069Z,24.40
2018-02-23T01:20:26.607Z,22.75
2018-02-23T01:22:54.120Z,21.50
2018-02-23T01:25:21.696Z,19.30
2018-02-23T01:27:49.187Z,20.30
2018-02-23T01:30:17.456Z,26.60
2018-02-23T01:32:45.704Z,20.48
2018-02-23T01:35:13.234Z,22.60
2018-02-23T01:37:40.750Z,18.85
2018-02-23T01:40:08.292Z,22.20
2018-02-23T01:42:35.827Z,23.50
2018-02-23T01:45:04.080Z,21.90
2018-02-23T01:47:32.351Z,19.60
2018-02-23T01:49:59.852Z,16.12
2018-02-23T01:52:27.352Z,29.12
2018-02-23T01:54:54.858Z,22.02
2018-02-23T01:57:23.113Z,15.63
2018-02-23T01:59:50.598Z,20.08
2018-02-23T02:02:18.883Z,17.70
2018-02-23T02:04:46.392Z,14.15
2018-02-23T02:07:13.913Z,14.85
2018-02-23T02:09:41.421Z,13.82
2018-02-23T02:12:08.936Z,18.20
2018-02-23T02:14:37.194Z,23.80
2018-02-23T02:17:04.703Z,21.92
2018-02-23T02:19:32.220Z,19.50
2018-02-23T02:21:59.733Z,20.35
2018-02-23T02:24:27.249Z,21.80
2018-02-23T02:26:54.752Z,25.52
2018-02-23T02:29:22.257Z,16.92
2018-02-23T02:31:49.801Z,16.33
2018-02-23T02:34:17.325Z,19.50
2018-02-23T02:36:44.834Z,35.00
2018-02-23T02:39:12.335Z,21.90
2018-02-23T02:41:40.601Z,19.73
2018-02-23T02:44:08.118Z,20.08
2018-02-23T02:46:35.953Z,17.58
2018-02-23T02:49:04.224Z,20.35
2018-02-23T02:51:31.933Z,20.98
2018-02-23T02:53:59.461Z,18.70
2018-02-23T02:56:27.740Z,23.48
2018-02-23T02:58:56.058Z,17.52
2018-02-23T03:01:23.563Z,28.00
2018-02-23T03:03:51.077Z,22.35
2018-02-23T03:06:18.581Z,20.90
2018-02-23T03:08:46.091Z,30.65
2018-02-23T03:11:14.355Z,17.58
2018-02-23T03:13:42.628Z,22.23
2018-02-23T03:16:10.122Z,17.27
2018-02-23T03:18:37.627Z,16.87
2018-02-23T03:21:05.125Z,29.35
2018-02-23T03:23:33.389Z,24.15
2018-02-23T03:26:01.648Z,19.42
2018-02-23T03:28:29.218Z,20.85
2018-02-23T03:30:56.730Z,23.75
2018-02-23T03:33:24.245Z,23.15
2018-02-23T03:35:51.746Z,18.55
2018-02-23T03:38:20.022Z,26.60
2018-02-23T03:40:48.328Z,20.55
2018-02-23T03:43:16.173Z,22.62
2018-02-23T03:45:44.436Z,23.95
2018-02-23T03:48:13.691Z,24.00
2018-02-23T03:50:42.028Z,25.42
2018-02-23T03:53:11.037Z,24.15
2018-02-23T03:55:39.321Z,38.58
2018-02-23T03:58:07.611Z,25.60
2018-02-23T04:00:35.993Z,22.73
2018-02-23T04:03:04.250Z,20.45
2018-02-23T04:05:31.767Z,30.55
2018-02-23T04:07:59.256Z,27.15
2018-02-23T04:10:26.958Z,31.30
2018-02-23T04:12:55.051Z,28.10
2018-02-23T04:15:24.205Z,35.88
2018-02-23T04:17:52.113Z,31.37
2018-02-23T04:20:20.403Z,32.97
2018-02-23T04:22:48.670Z,27.90
2018-02-23T04:25:16.933Z,36.25
2018-02-23T04:27:44.428Z,35.58
2018-02-23T04:30:12.696Z,31.27
2018-02-23T04:32:40.973Z,25.90
2018-02-23T04:35:09.268Z,23.62
2018-02-23T04:37:37.549Z,34.75
2018-02-23T04:40:05.091Z,29.83
2018-02-23T04:42:32.599Z,33.53
2018-02-23T04:45:00.132Z,27.08
2018-02-23T04:47:28.409Z,38.80
2018-02-23T04:49:56.722Z,31.17
2018-02-23T04:52:24.220Z,38.47
2018-02-23T04:54:51.736Z,36.10
2018-02-23T04:57:19.230Z,31.33
2018-02-23T04:59:46.739Z,34.78
2018-02-23T05:02:14.244Z,29.12
2018-02-23T05:04:41.749Z,39.60
2018-02-23T05:07:09.258Z,35.63
2018-02-23T05:09:36.785Z,43.60
2018-02-23T05:12:04.294Z,37.08
2018-02-23T05:14:31.792Z,39.40
2018-02-23T05:16:59.323Z,53.90
2018-02-23T05:19:26.821Z,51.92
2018-02-23T05:21:54.314Z,43.38
2018-02-23T05:24:22.585Z,43.35
2018-02-23T05:26:50.854Z,43.75
2018-02-23T05:29:18.376Z,43.28
2018-02-23T05:31:45.863Z,35.00
2018-02-23T05:34:13.366Z,38.38
2018-02-23T05:36:41.642Z,43.42
2018-02-23T05:39:09.926Z,50.35
2018-02-23T05:41:38.200Z,48.42
2018-02-23T05:44:06.486Z,33.53
2018-02-23T05:46:34.781Z,34.97
2018-02-23T05:49:02.271Z,33.60
2018-02-23T05:51:29.802Z,38.55
2018-02-23T05:53:58.058Z,43.85
2018-02-23T05:56:25.561Z,47.22
2018-02-23T05:58:53.060Z,40.90
2018-02-23T06:01:20.589Z,33.00
2018-02-23T06:03:48.074Z,44.28
2018-02-23T06:06:15.578Z,46.00
2018-02-23T06:08:43.842Z,39.40
2018-02-23T06:11:11.344Z,33.60
2018-02-23T06:13:39.609Z,47.55
2018-02-23T06:16:13.513Z,32.25
2018-02-23T06:18:46.893Z,44.95
2018-02-23T06:21:14.412Z,37.22
2018-02-23T06:23:41.916Z,43.78
2018-02-23T06:26:09.409Z,48.45
2018-02-23T06:28:37.722Z,39.70
2018-02-23T06:31:05.247Z,40.00
2018-02-23T06:33:33.612Z,34.95
2018-02-23T06:36:01.136Z,37.60
2018-02-23T06:38:28.645Z,33.40
2018-02-23T06:40:56.144Z,45.50
2018-02-23T06:43:23.760Z,41.72
2018-02-23T06:45:51.272Z,42.05
2018-02-23T06:48:18.828Z,29.65
2018-02-23T06:50:47.091Z,35.25
2018-02-23T06:53:14.589Z,39.72
2018-02-23T06:55:42.100Z,47.15
2018-02-23T06:58:09.672Z,38.17
2018-02-23T07:00:37.193Z,42.65
2018-02-23T07:03:05.545Z,41.83
2018-02-23T07:05:33.813Z,62.72
2018-02-23T07:08:02.090Z,34.80
2018-02-23T07:10:30.360Z,46.85
2018-02-23T07:12:58.644Z,46.08
2018-02-23T07:15:26.138Z,33.55
2018-02-23T07:17:53.686Z,36.22
2018-02-23T07:20:21.946Z,33.28
2018-02-23T07:22:49.510Z,45.97
2018-02-23T07:25:17.015Z,46.05
2018-02-23T07:27:44.561Z,42.03
2018-02-23T07:30:12.839Z,41.65
2018-02-23T07:32:41.117Z,38.45
2018-02-23T07:35:09.433Z,32.38
2018-02-23T07:37:36.949Z,45.78
2018-02-23T07:40:04.452Z,48.92
2018-02-23T07:42:31.966Z,40.25
2018-02-23T07:44:59.458Z,41.60
2018-02-23T07:47:26.970Z,39.65
2018-02-23T07:49:54.479Z,45.67
2018-02-23T07:52:22.805Z,51.10
2018-02-23T07:54:50.356Z,47.50
2018-02-23T07:57:17.846Z,33.95
2018-02-23T07:59:45.362Z,45.00
2018-02-23T08:02:12.863Z,40.42
2018-02-23T08:04:40.395Z,41.15
2018-02-23T08:07:07.893Z,45.33
2018-02-23T08:09:35.424Z,43.63
2018-02-23T08:12:02.933Z,48.08
2018-02-23T08:14:30.466Z,46.95
2018-02-23T08:16:57.993Z,38.65
2018-02-23T08:19:26.258Z,46.67
2018-02-23T08:21:53.810Z,48.80
2018-02-23T08:24:21.345Z,50.92
2018-02-23T08:26:48.837Z,49.05
2018-02-23T08:29:16.358Z,47.05
2018-02-23T08:31:43.857Z,41.60
2018-02-23T08:34:11.357Z,44.50
2018-02-23T08:36:39.668Z,56.08
2018-02-23T08:39:07.190Z,42.95
2018-02-23T08:41:35.489Z,59.75
2018-02-23T08:44:03.806Z,47.42
2018-02-23T08:46:31.312Z,39.80
2018-02-23T08:48:58.809Z,39.38
2018-02-23T08:51:26.307Z,55.03
2018-02-23T08:53:53.831Z,41.72
2018-02-23T08:56:22.107Z,52.60
2018-02-23T08:58:50.384Z,48.42
2018-02-23T09:01:18.656Z,51.90
2018-02-23T09:03:46.939Z,38.95
2018-02-23T09:06:15.217Z,40.85
2018-02-23T09:08:43.571Z,58.25
2018-02-23T09:11:11.078Z,41.33
2018-02-23T09:13:39.680Z,38.38
2018-02-23T09:16:08.080Z,35.08
2018-02-23T09:18:35.600Z,42.13
2018-02-23T09:21:03.880Z,48.67
2018-02-23T09:23:32.155Z,37.60
2018-02-23T09:26:00.442Z,38.28
2018-02-23T09:28:28.013Z,35.72
2018-02-23T09:30:56.441Z,40.70
2018-02-23T09:33:35.737Z,35.25
2018-02-23T09:36:04.032Z,32.95
2018-02-23T09:38:31.747Z,34.75
2018-02-23T09:41:00.052Z,25.65
2018-02-23T09:43:27.581Z,37.75
2018-02-23T09:45:55.094Z,30.95
2018-02-23T09:48:23.542Z,28.73
2018-02-23T09:50:51.849Z,34.00
2018-02-23T09:53:20.944Z,38.55
2018-02-23T09:55:49.250Z,32.92
2018-02-23T09:58:16.750Z,26.52
2018-02-23T10:00:44.256Z,33.00
2018-02-23T10:03:12.528Z,31.70
2018-02-23T10:05:40.888Z,30.33
2018-02-23T10:08:08.419Z,30.05
2018-02-23T10:10:36.155Z,39.22
2018-02-23T10:13:03.691Z,29.75
2018-02-23T10:15:31.204Z,28.77
2018-02-23T10:17:58.712Z,33.33
2018-02-23T10:20:26.260Z,31.10
2018-02-23T10:22:53.839Z,31.23
2018-02-23T10:25:21.358Z,71.68
2018-02-23T10:27:48.896Z,24.15
2018-02-23T10:30:17.176Z,29.10
2018-02-23T10:32:45.508Z,28.38
2018-02-23T10:35:13.004Z,24.27
2018-02-23T10:37:40.517Z,25.42
2018-02-23T10:40:08.008Z,25.20
2018-02-23T10:42:35.512Z,25.33
2018-02-23T10:45:03.778Z,21.50
2018-02-23T10:47:32.074Z,34.50
2018-02-23T10:50:00.385Z,36.95
2018-02-23T10:52:27.889Z,27.73
2018-02-23T10:54:55.378Z,27.08
2018-02-23T10:57:23.694Z,25.45
2018-02-23T10:59:51.203Z,25.17
2018-02-23T11:02:18.718Z,29.02
2018-02-23T11:04:46.206Z,28.10
2018-02-23T11:07:13.774Z,32.78
2018-02-23T11:09:41.274Z,25.83
2018-02-23T11:12:09.550Z,31.90
2018-02-23T11:14:37.828Z,26.35
2018-02-23T11:17:06.114Z,27.35
2018-02-23T11:19:34.382Z,42.97
2018-02-23T11:22:01.902Z,29.02
2018-02-23T11:24:29.398Z,29.37
2018-02-23T11:26:56.942Z,32.80
2018-02-23T11:29:24.470Z,27.37
2018-02-23T11:31:51.975Z,26.12
2018-02-23T11:34:19.474Z,28.55
2018-02-23T11:36:47.808Z,29.83
2018-02-23T11:39:15.329Z,32.42
2018-02-23T11:41:42.884Z,35.40
2018-02-23T11:44:11.165Z,36.20
2018-02-23T11:46:38.682Z,26.77
2018-02-23T11:49:06.193Z,24.17
2018-02-23T11:51:34.454Z,22.73
2018-02-23T11:54:02.064Z,22.33
2018-02-23T11:56:29.590Z,28.65
2018-02-23T11:59:00.128Z,29.33
2018-02-23T12:01:27.627Z,26.83
2018-02-23T12:03:55.202Z,33.08
2018-02-23T12:06:22.690Z,30.33
2018-02-23T12:08:50.212Z,22.23
2018-02-23T12:11:17.715Z,26.75
2018-02-23T12:13:45.537Z,23.35
2018-02-23T12:16:13.211Z,28.60
2018-02-23T12:18:40.771Z,25.15
2018-02-23T12:21:08.282Z,30.45
2018-02-23T12:23:35.811Z,33.28
2018-02-23T12:26:03.470Z,29.17
2018-02-23T12:28:30.982Z,32.90
2018-02-23T12:30:58.503Z,27.35
2018-02-23T12:33:26.014Z,31.80
2018-02-23T12:35:53.538Z,24.12
2018-02-23T12:38:21.038Z,30.02
2018-02-23T12:40:50.082Z,24.70
2018-02-23T12:43:17.598Z,26.95
2018-02-23T12:45:45.209Z,27.30
2018-02-23T12:48:12.717Z,28.65
2018-02-23T12:50:40.252Z,30.77
2018-02-23T12:53:07.771Z,25.55
2018-02-23T12:55:35.315Z,28.38
2018-02-23T12:58:02.821Z,34.72
2018-02-23T13:00:31.123Z,36.15
2018-02-23T13:02:58.631Z,31.20
2018-02-23T13:05:26.121Z,23.05
2018-02-23T13:07:54.500Z,31.35
2018-02-23T13:10:22.009Z,29.52
2018-02-23T13:12:49.522Z,26.48
2018-02-23T13:15:18.842Z,31.02
2018-02-23T13:17:47.150Z,26.85
2018-02-23T13:20:14.666Z,28.83
2018-02-23T13:22:42.183Z,27.27
2018-02-23T13:25:09.702Z,27.73
2018-02-23T13:27:38.091Z,36.58
2018-02-23T13:30:06.358Z,29.60
2018-02-23T13:32:34.641Z,30.12
2018-02-23T13:35:02.146Z,26.15
2018-02-23T13:37:29.748Z,35.72
2018-02-23T13:39:58.848Z,28.73
2018-02-23T13:42:27.123Z,26.77
2018-02-23T13:44:54.617Z,24.87
2018-02-23T13:47:22.980Z,31.15
2018-02-23T13:49:50.486Z,27.98
2018-02-23T13:52:18.021Z,35.35
2018-02-23T13:54:45.512Z,24.60
2018-02-23T13:57:13.016Z,27.00
2018-02-23T13:59:40.516Z,20.33
2018-02-23T14:02:08.831Z,22.92
2018-02-23T14:04:36.375Z,26.00
2018-02-23T14:07:11.154Z,21.55
2018-02-23T14:09:38.672Z,23.38
2018-02-23T14:12:06.183Z,21.95
2018-02-23T14:14:33.681Z,28.40
2018-02-23T14:17:01.952Z,21.55
2018-02-23T14:19:30.259Z,30.33
2018-02-23T14:21:57.821Z,21.87
2018-02-23T14:24:26.839Z,20.62
2018-02-23T14:26:54.762Z,22.87
2018-02-23T14:29:22.253Z,19.75
2018-02-23T14:31:49.813Z,21.73
2018-02-23T14:34:18.126Z,23.45
2018-02-23T14:36:45.662Z,16.00
2018-02-23T14:39:13.938Z,20.58
2018-02-23T14:41:42.210Z,25.27
2018-02-23T14:44:10.521Z,25.20
2018-02-23T14:46:38.710Z,22.55
2018-02-23T14:49:17.152Z,27.37
2018-02-23T14:51:44.661Z,17.05
2018-02-23T14:54:12.952Z,15.75
2018-02-23T14:56:40.973Z,21.12
2018-02-23T14:59:08.516Z,20.25
2018-02-23T15:01:36.021Z,27.55
2018-02-23T15:04:03.593Z,31.30
2018-02-23T15:06:31.876Z,22.15
2018-02-23T15:09:00.208Z,22.33
2018-02-23T15:11:27.718Z,26.12
2018-02-23T15:13:56.001Z,20.20
2018-02-23T15:16:24.296Z,23.05
2018-02-23T15:18:52.572Z,25.33
2018-02-23T15:21:20.848Z,22.65
2018-02-23T15:23:49.135Z,24.60
2018-02-23T15:26:17.390Z,21.45
2018-02-23T15:28:45.699Z,24.17
2018-02-23T15:31:25.206Z,20.20
2018-02-23T15:33:52.750Z,27.13
2018-02-23T15:36:20.268Z,26.83
2018-02-23T15:38:47.792Z,32.25
2018-02-23T15:41:15.289Z,25.20
2018-02-23T15:43:43.561Z,31.25
2018-02-23T15:46:11.840Z,27.45
2018-02-23T15:48:52.809Z,28.60
2018-02-23T15:51:24.442Z,25.33
2018-02-23T15:53:51.977Z,27.77
2018-02-23T15:56:19.497Z,33.80
2018-02-23T15:58:47.777Z,27.10
2018-02-23T16:01:16.051Z,29.48
2018-02-23T16:03:43.866Z,25.33
2018-02-23T16:06:11.440Z,22.45
2018-02-23T16:08:38.957Z,27.60
2018-02-23T16:11:07.272Z,25.48
2018-02-23T16:13:34.789Z,24.27
2018-02-23T16:16:02.313Z,19.02
2018-02-23T16:18:29.859Z,19.25
2018-02-23T16:20:57.373Z,19.40
2018-02-23T16:23:24.868Z,19.45
2018-02-23T16:25:52.378Z,14.43
2018-02-23T16:28:19.888Z,19.05
2018-02-23T16:30:48.646Z,18.87
2018-02-23T16:33:16.134Z,16.85
2018-02-23T16:35:44.402Z,19.87
2018-02-23T16:38:11.967Z,15.57
2018-02-23T16:40:39.516Z,17.12
2018-02-23T16:43:07.005Z,20.95
2018-02-23T16:45:35.299Z,20.98
2018-02-23T16:48:03.615Z,17.45
2018-02-23T16:50:31.153Z,23.45
2018-02-23T16:52:58.678Z,11.73
2018-02-23T16:55:26.246Z,13.93
2018-02-23T16:57:54.527Z,15.82
2018-02-23T17:00:22.899Z,16.48
2018-02-23T17:02:50.432Z,14.18
2018-02-23T17:05:18.082Z,16.23
2018-02-23T17:07:45.580Z,24.08
2018-02-23T17:10:13.098Z,15.70
2018-02-23T17:12:40.590Z,18.92
2018-02-23T17:15:08.102Z,21.98
2018-02-23T17:17:35.662Z,22.13
2018-02-23T17:20:04.031Z,15.07
2018-02-23T17:22:31.708Z,21.33
2018-02-23T17:25:00.032Z,23.45
2018-02-23T17:27:27.708Z,15.30
2018-02-23T17:29:55.248Z,17.62
2018-02-23T17:32:23.496Z,16.05
2018-02-23T17:34:51.041Z,13.55
2018-02-23T17:37:18.566Z,15.15
2018-02-23T17:39:46.088Z,18.12
2018-02-23T17:42:13.611Z,19.85
2018-02-23T17:44:43.305Z,12.52
2018-02-23T17:47:10.804Z,25.95
2018-02-23T17:49:38.336Z,21.42
2018-02-23T17:52:05.831Z,17.52
2018-02-23T17:54:33.338Z,15.55
2018-02-23T17:57:00.933Z,12.75
2018-02-23T17:59:28.498Z,17.80
2018-02-23T18:01:56.005Z,19.50
2018-02-23T18:04:23.564Z,15.82
2018-02-23T18:06:51.890Z,15.07
2018-02-23T18:09:19.441Z,19.42
2018-02-23T18:11:47.631Z,16.27
2018-02-23T18:14:15.910Z,20.35
2018-02-23T18:16:44.233Z,19.05
2018-02-23T18:19:11.737Z,17.98
2018-02-23T18:21:40.051Z,18.08
2018-02-23T18:24:07.567Z,20.48
2018-02-23T18:26:35.090Z,17.50
2018-02-23T18:29:03.442Z,13.80
2018-02-23T18:31:31.017Z,15.65
2018-02-23T18:33:58.551Z,18.33
2018-02-23T18:36:26.095Z,13.60
2018-02-23T18:38:53.603Z,16.73
2018-02-23T18:41:21.890Z,16.08
2018-02-23T18:43:49.441Z,14.95
2018-02-23T18:46:17.733Z,15.07
2018-02-23T18:48:45.293Z,13.68
2018-02-23T18:51:13.576Z,16.10
2018-02-23T18:53:41.104Z,16.85
2018-02-23T18:56:08.772Z,19.48
2018-02-23T18:58:36.346Z,13.38
2018-02-23T19:01:04.000Z,13.98
2018-02-23T19:03:31.543Z,14.40
2018-02-23T19:05:59.079Z,13.32
2018-02-23T19:08:26.582Z,13.40
2018-02-23T19:10:54.885Z,15.68
2018-02-23T19:13:23.157Z,15.15
2018-02-23T19:15:50.777Z,18.15
2018-02-23T19:18:18.292Z,16.20
2018-02-23T19:20:45.835Z,12.73
2018-02-23T19:23:13.385Z,26.77
2018-02-23T19:25:40.892Z,11.77
2018-02-23T19:28:09.147Z,14.15
2018-02-23T19:30:36.653Z,23.10
2018-02-23T19:33:05.457Z,15.10
2018-02-23T19:35:33.024Z,17.70
2018-02-23T19:38:00.516Z,14.55
2018-02-23T19:40:28.350Z,16.87
2018-02-23T19:42:55.865Z,19.90
2018-02-23T19:45:24.927Z,18.27
2018-02-23T19:47:52.507Z,19.65
2018-02-23T19:50:20.020Z,19.95
2018-02-23T19:52:48.363Z,17.65
2018-02-23T19:55:15.860Z,14.10
2018-02-23T19:57:44.132Z,20.05
2018-02-23T20:00:11.665Z,22.50
2018-02-23T20:02:39.968Z,22.87
2018-02-23T20:05:08.268Z,14.38
2018-02-23T20:07:36.579Z,14.60
2018-02-23T20:10:04.101Z,14.35
2018-02-23T20:12:31.684Z,19.05
2018-02-23T20:14:59.951Z,19.77
2018-02-23T20:17:27.481Z,16.70
2018-02-23T20:19:55.008Z,22.23
2018-02-23T20:22:22.522Z,20.95
2018-02-23T20:24:50.151Z,21.85
2018-02-23T20:27:17.676Z,25.85
2018-02-23T20:29:45.974Z,16.85
2018-02-23T20:32:13.514Z,12.70
2018-02-23T20:34:41.828Z,17.45
2018-02-23T20:37:09.402Z,20.27
2018-02-23T20:39:36.908Z,16.10
2018-02-23T20:42:04.437Z,21.67
2018-02-23T20:44:31.955Z,19.55
2018-02-23T20:47:00.249Z,23.12
2018-02-23T20:49:28.575Z,23.17
2018-02-23T20:51:56.098Z,15.60
2018-02-23T20:54:25.170Z,20.60
2018-02-23T20:56:52.675Z,18.70
2018-02-23T20:59:20.186Z,20.37
2018-02-23T21:01:47.731Z,13.73
2018-02-23T21:04:15.266Z,19.70
2018-02-23T21:06:42.795Z,15.98
2018-02-23T21:09:10.717Z,11.23
2018-02-23T21:11:38.282Z,19.25
2018-02-23T21:14:05.824Z,17.70
2018-02-23T21:16:33.336Z,21.17
2018-02-23T21:19:00.837Z,25.85
2018-02-23T21:21:28.401Z,20.37
2018-02-23T21:23:56.681Z,21.25
2018-02-23T21:26:24.947Z,44.08
2018-02-23T21:28:53.217Z,14.57
2018-02-23T21:31:20.745Z,16.37
2018-02-23T21:33:48.274Z,15.02
2018-02-23T21:36:16.545Z,28.87
2018-02-23T21:38:44.848Z,13.48
2018-02-23T21:41:12.367Z,15.93
2018-02-23T21:43:39.880Z,14.87
2018-02-23T21:46:07.386Z,16.12
2018-02-23T21:48:35.456Z,17.33
2018-02-23T21:51:03.214Z,20.70
2018-02-23T21:53:30.761Z,28.20
2018-02-23T21:55:58.256Z,25.12
2018-02-23T21:58:25.755Z,24.73
2018-02-23T22:00:54.022Z,30.35
2018-02-23T22:03:22.101Z,33.97
2018-02-23T22:05:50.406Z,28.80
2018-02-23T22:08:18.180Z,27.83
2018-02-23T22:10:45.686Z,33.17
2018-02-23T22:13:13.209Z,23.45
2018-02-23T22:15:40.721Z,23.02
2018-02-23T22:18:08.223Z,19.77
2018-02-23T22:20:35.770Z,20.48
2018-02-23T22:23:03.281Z,32.10
2018-02-23T22:25:30.777Z,24.85
2018-02-23T22:27:59.375Z,23.27
2018-02-23T22:30:26.895Z,22.35
2018-02-23T22:32:54.392Z,19.58
2018-02-23T22:35:21.909Z,20.58
2018-02-23T22:37:49.409Z,24.15
2018-02-23T22:40:16.913Z,28.42
2018-02-23T22:42:44.450Z,36.65
2018-02-23T22:45:11.958Z,36.30
2018-02-23T22:47:39.509Z,21.50
2018-02-23T22:50:07.758Z,22.92
2018-02-23T22:52:35.264Z,20.98
2018-02-23T22:55:03.156Z,29.77
2018-02-23T22:57:30.913Z,24.77
2018-02-23T22:59:58.448Z,28.83
2018-02-23T23:02:26.725Z,22.60
2018-02-23T23:04:54.990Z,25.27
2018-02-23T23:07:23.212Z,32.10
2018-02-23T23:09:50.718Z,34.58
2018-02-23T23:12:18.225Z,26.33
2018-02-23T23:14:46.477Z,24.48
2018-02-23T23:17:13.976Z,20.90
2018-02-23T23:19:41.475Z,22.40
2018-02-23T23:22:08.978Z,20.48
2018-02-23T23:24:37.254Z,24.05
2018-02-23T23:27:04.756Z,23.98
2018-02-23T23:29:32.293Z,25.70
2018-02-23T23:32:00.561Z,36.95
2018-02-23T23:34:28.879Z,23.90
2018-02-23T23:36:56.416Z,27.33
2018-02-23T23:39:31.514Z,20.88
2018-02-23T23:41:59.037Z,25.20
2018-02-23T23:44:27.320Z,29.65
2018-02-23T23:46:54.822Z,25.42
2018-02-23T23:49:22.409Z,19.73
2018-02-23T23:51:49.994Z,20.95
2018-02-23T23:54:18.360Z,26.35
2018-02-23T23:56:45.887Z,38.55
2018-02-23T23:59:13.402Z,26.12
